sensor_id;sensor_type;location;lat;lon;timestamp;P1;durP1;ratioP1;P2;durP2;ratioP2
31680;SDS011;18281;51.364;9.566;2022-10-16T00:01:33;3.35;;;1.20;;
31680;SDS011;18281;51.364;9.566;2022-10-16T00:04:00;1.88;;;1.58;;
31680;SDS011;18281;51.364;9.566;2022-10-16T00:06:27;3.22;;;1.30;;
31680;SDS011;18281;51.364;9.566;2022-10-16T00:08:53;1.20;;;1.10;;
31680;SDS011;18281;51.364;9.566;2022-10-16T00:11:23;5.32;;;2.20;;
31680;SDS011;18281;51.364;9.566;2022-10-16T00:14:01;5.35;;;2.35;;
31680;SDS011;18281;51.364;9.566;2022-10-16T00:16:29;4.90;;;2.20;;
31680;SDS011;18281;51.364;9.566;2022-10-16T00:18:55;2.13;;;1.25;;
31680;SDS011;18281;51.364;9.566;2022-10-16T00:21:25;2.05;;;1.50;;
31680;SDS011;18281;51.364;9.566;2022-10-16T00:23:53;3.83;;;1.30;;
31680;SDS011;18281;51.364;9.566;2022-10-16T00:26:24;2.90;;;1.10;;
31680;SDS011;18281;51.364;9.566;2022-10-16T00:28:50;1.35;;;1.25;;
31680;SDS011;18281;51.364;9.566;2022-10-16T00:31:17;3.22;;;1.10;;
31680;SDS011;18281;51.364;9.566;2022-10-16T00:33:43;1.88;;;1.60;;
31680;SDS011;18281;51.364;9.566;2022-10-16T00:36:10;3.25;;;1.20;;
31680;SDS011;18281;51.364;9.566;2022-10-16T00:38:38;1.95;;;1.20;;
31680;SDS011;18281;51.364;9.566;2022-10-16T00:41:04;4.00;;;1.25;;
31680;SDS011;18281;51.364;9.566;2022-10-16T00:43:38;1.50;;;1.40;;
31680;SDS011;18281;51.364;9.566;2022-10-16T00:46:17;1.15;;;1.13;;
31680;SDS011;18281;51.364;9.566;2022-10-16T00:48:52;6.63;;;1.30;;
31680;SDS011;18281;51.364;9.566;2022-10-16T00:51:23;2.03;;;1.52;;
31680;SDS011;18281;51.364;9.566;2022-10-16T00:53:53;7.15;;;2.17;;
31680;SDS011;18281;51.364;9.566;2022-10-16T00:56:19;3.00;;;1.75;;
31680;SDS011;18281;51.364;9.566;2022-10-16T00:58:44;1.73;;;1.48;;
31680;SDS011;18281;51.364;9.566;2022-10-16T01:01:10;2.20;;;1.15;;
31680;SDS011;18281;51.364;9.566;2022-10-16T01:03:36;1.85;;;1.25;;
31680;SDS011;18281;51.364;9.566;2022-10-16T01:11:34;2.17;;;1.45;;
31680;SDS011;18281;51.364;9.566;2022-10-16T01:17:17;1.48;;;1.30;;
31680;SDS011;18281;51.364;9.566;2022-10-16T01:20:06;2.60;;;1.30;;
31680;SDS011;18281;51.364;9.566;2022-10-16T01:22:35;1.58;;;1.20;;
31680;SDS011;18281;51.364;9.566;2022-10-16T01:28:04;4.28;;;2.03;;
31680;SDS011;18281;51.364;9.566;2022-10-16T01:30:34;5.50;;;2.00;;
31680;SDS011;18281;51.364;9.566;2022-10-16T01:33:20;2.55;;;1.67;;
31680;SDS011;18281;51.364;9.566;2022-10-16T01:35:52;1.30;;;1.20;;
31680;SDS011;18281;51.364;9.566;2022-10-16T01:38:31;1.40;;;1.30;;
31680;SDS011;18281;51.364;9.566;2022-10-16T01:42:06;1.95;;;1.35;;
31680;SDS011;18281;51.364;9.566;2022-10-16T01:44:08;1.25;;;1.20;;
31680;SDS011;18281;51.364;9.566;2022-10-16T01:46:39;4.65;;;1.25;;
31680;SDS011;18281;51.364;9.566;2022-10-16T01:49:07;1.80;;;1.08;;
31680;SDS011;18281;51.364;9.566;2022-10-16T01:51:36;4.35;;;1.08;;
31680;SDS011;18281;51.364;9.566;2022-10-16T01:54:02;5.88;;;1.40;;
31680;SDS011;18281;51.364;9.566;2022-10-16T01:56:32;5.15;;;1.60;;
31680;SDS011;18281;51.364;9.566;2022-10-16T01:59:00;3.65;;;1.50;;
31680;SDS011;18281;51.364;9.566;2022-10-16T02:01:29;2.20;;;1.45;;
31680;SDS011;18281;51.364;9.566;2022-10-16T02:03:59;3.65;;;1.85;;
31680;SDS011;18281;51.364;9.566;2022-10-16T02:06:32;3.20;;;1.73;;
31680;SDS011;18281;51.364;9.566;2022-10-16T02:08:57;2.20;;;1.92;;
31680;SDS011;18281;51.364;9.566;2022-10-16T02:11:24;2.25;;;1.67;;
31680;SDS011;18281;51.364;9.566;2022-10-16T02:13:58;5.78;;;1.70;;
31680;SDS011;18281;51.364;9.566;2022-10-16T02:19:05;4.93;;;1.52;;
31680;SDS011;18281;51.364;9.566;2022-10-16T02:21:42;2.53;;;2.05;;
31680;SDS011;18281;51.364;9.566;2022-10-16T02:26:52;2.00;;;1.90;;
31680;SDS011;18281;51.364;9.566;2022-10-16T02:29:26;5.93;;;2.33;;
31680;SDS011;18281;51.364;9.566;2022-10-16T02:31:56;4.15;;;2.40;;
31680;SDS011;18281;51.364;9.566;2022-10-16T02:34:25;2.38;;;2.10;;
31680;SDS011;18281;51.364;9.566;2022-10-16T02:36:53;3.30;;;1.90;;
31680;SDS011;18281;51.364;9.566;2022-10-16T02:39:19;2.47;;;2.22;;
31680;SDS011;18281;51.364;9.566;2022-10-16T02:41:45;5.15;;;1.95;;
31680;SDS011;18281;51.364;9.566;2022-10-16T02:44:11;2.33;;;2.10;;
31680;SDS011;18281;51.364;9.566;2022-10-16T02:46:36;2.58;;;2.15;;
31680;SDS011;18281;51.364;9.566;2022-10-16T02:49:02;2.00;;;1.80;;
31680;SDS011;18281;51.364;9.566;2022-10-16T02:51:27;2.70;;;2.03;;
31680;SDS011;18281;51.364;9.566;2022-10-16T02:53:53;2.80;;;2.55;;
31680;SDS011;18281;51.364;9.566;2022-10-16T02:56:18;2.90;;;2.70;;
31680;SDS011;18281;51.364;9.566;2022-10-16T02:58:43;5.18;;;2.45;;
31680;SDS011;18281;51.364;9.566;2022-10-16T03:01:09;3.70;;;2.92;;
31680;SDS011;18281;51.364;9.566;2022-10-16T03:03:34;2.63;;;2.53;;
31680;SDS011;18281;51.364;9.566;2022-10-16T03:05:59;3.72;;;2.35;;
31680;SDS011;18281;51.364;9.566;2022-10-16T03:08:25;4.78;;;2.67;;
31680;SDS011;18281;51.364;9.566;2022-10-16T03:10:50;3.63;;;2.90;;
31680;SDS011;18281;51.364;9.566;2022-10-16T03:13:16;5.05;;;2.90;;
31680;SDS011;18281;51.364;9.566;2022-10-16T03:15:41;3.33;;;2.92;;
31680;SDS011;18281;51.364;9.566;2022-10-16T03:18:07;6.90;;;2.60;;
31680;SDS011;18281;51.364;9.566;2022-10-16T03:20:32;3.10;;;2.75;;
31680;SDS011;18281;51.364;9.566;2022-10-16T03:22:58;5.25;;;2.70;;
31680;SDS011;18281;51.364;9.566;2022-10-16T03:25:23;3.55;;;3.13;;
31680;SDS011;18281;51.364;9.566;2022-10-16T03:27:49;3.45;;;3.15;;
31680;SDS011;18281;51.364;9.566;2022-10-16T03:30:14;3.30;;;3.00;;
31680;SDS011;18281;51.364;9.566;2022-10-16T03:32:40;2.95;;;2.75;;
31680;SDS011;18281;51.364;9.566;2022-10-16T03:35:05;3.17;;;2.42;;
31680;SDS011;18281;51.364;9.566;2022-10-16T03:37:31;3.42;;;3.22;;
31680;SDS011;18281;51.364;9.566;2022-10-16T03:39:56;5.72;;;2.42;;
31680;SDS011;18281;51.364;9.566;2022-10-16T03:42:22;3.03;;;2.83;;
31680;SDS011;18281;51.364;9.566;2022-10-16T03:44:47;2.50;;;2.40;;
31680;SDS011;18281;51.364;9.566;2022-10-16T03:47:12;5.60;;;2.60;;
31680;SDS011;18281;51.364;9.566;2022-10-16T03:49:38;4.80;;;2.63;;
31680;SDS011;18281;51.364;9.566;2022-10-16T03:52:03;3.53;;;2.58;;
31680;SDS011;18281;51.364;9.566;2022-10-16T03:54:29;2.85;;;2.50;;
31680;SDS011;18281;51.364;9.566;2022-10-16T03:56:54;2.40;;;2.20;;
31680;SDS011;18281;51.364;9.566;2022-10-16T03:59:19;2.75;;;2.17;;
31680;SDS011;18281;51.364;9.566;2022-10-16T04:01:45;4.32;;;2.92;;
31680;SDS011;18281;51.364;9.566;2022-10-16T04:04:10;3.03;;;2.33;;
31680;SDS011;18281;51.364;9.566;2022-10-16T04:06:35;2.80;;;2.60;;
31680;SDS011;18281;51.364;9.566;2022-10-16T04:09:01;5.78;;;2.78;;
31680;SDS011;18281;51.364;9.566;2022-10-16T04:11:26;3.80;;;2.50;;
31680;SDS011;18281;51.364;9.566;2022-10-16T04:13:52;2.17;;;1.95;;
31680;SDS011;18281;51.364;9.566;2022-10-16T04:16:17;7.18;;;2.60;;
31680;SDS011;18281;51.364;9.566;2022-10-16T04:18:43;2.58;;;1.98;;
31680;SDS011;18281;51.364;9.566;2022-10-16T04:21:08;2.67;;;2.45;;
31680;SDS011;18281;51.364;9.566;2022-10-16T04:23:33;3.70;;;1.95;;
31680;SDS011;18281;51.364;9.566;2022-10-16T04:25:59;4.80;;;2.33;;
31680;SDS011;18281;51.364;9.566;2022-10-16T04:28:25;2.00;;;1.90;;
31680;SDS011;18281;51.364;9.566;2022-10-16T04:30:51;2.22;;;2.10;;
31680;SDS011;18281;51.364;9.566;2022-10-16T04:33:17;2.92;;;2.20;;
31680;SDS011;18281;51.364;9.566;2022-10-16T04:35:42;3.05;;;2.30;;
31680;SDS011;18281;51.364;9.566;2022-10-16T04:38:07;5.50;;;3.00;;
31680;SDS011;18281;51.364;9.566;2022-10-16T04:40:33;4.32;;;1.90;;
31680;SDS011;18281;51.364;9.566;2022-10-16T04:43:01;3.38;;;1.80;;
31680;SDS011;18281;51.364;9.566;2022-10-16T04:45:27;2.88;;;2.08;;
31680;SDS011;18281;51.364;9.566;2022-10-16T04:47:52;1.83;;;1.70;;
31680;SDS011;18281;51.364;9.566;2022-10-16T04:50:21;2.25;;;1.80;;
31680;SDS011;18281;51.364;9.566;2022-10-16T04:52:46;1.80;;;1.70;;
31680;SDS011;18281;51.364;9.566;2022-10-16T04:55:12;2.05;;;1.70;;
31680;SDS011;18281;51.364;9.566;2022-10-16T04:57:37;1.90;;;1.80;;
31680;SDS011;18281;51.364;9.566;2022-10-16T05:00:02;2.50;;;2.30;;
31680;SDS011;18281;51.364;9.566;2022-10-16T05:02:28;3.08;;;2.05;;
31680;SDS011;18281;51.364;9.566;2022-10-16T05:04:54;3.90;;;1.80;;
31680;SDS011;18281;51.364;9.566;2022-10-16T05:07:19;2.83;;;1.60;;
31680;SDS011;18281;51.364;9.566;2022-10-16T05:09:44;5.28;;;1.60;;
31680;SDS011;18281;51.364;9.566;2022-10-16T05:12:10;2.58;;;1.25;;
31680;SDS011;18281;51.364;9.566;2022-10-16T05:14:35;3.17;;;1.50;;
31680;SDS011;18281;51.364;9.566;2022-10-16T05:17:01;3.33;;;1.50;;
31680;SDS011;18281;51.364;9.566;2022-10-16T05:19:26;2.38;;;1.30;;
31680;SDS011;18281;51.364;9.566;2022-10-16T05:21:51;1.63;;;1.52;;
31680;SDS011;18281;51.364;9.566;2022-10-16T05:24:16;1.50;;;1.30;;
31680;SDS011;18281;51.364;9.566;2022-10-16T05:26:42;1.50;;;1.40;;
31680;SDS011;18281;51.364;9.566;2022-10-16T05:29:07;2.70;;;1.45;;
31680;SDS011;18281;51.364;9.566;2022-10-16T05:31:33;1.35;;;1.25;;
31680;SDS011;18281;51.364;9.566;2022-10-16T05:33:59;3.17;;;1.50;;
31680;SDS011;18281;51.364;9.566;2022-10-16T05:36:25;4.53;;;1.42;;
31680;SDS011;18281;51.364;9.566;2022-10-16T05:38:50;2.72;;;1.50;;
31680;SDS011;18281;51.364;9.566;2022-10-16T05:41:16;2.22;;;1.30;;
31680;SDS011;18281;51.364;9.566;2022-10-16T05:43:46;2.83;;;1.05;;
31680;SDS011;18281;51.364;9.566;2022-10-16T05:46:14;1.43;;;1.30;;
31680;SDS011;18281;51.364;9.566;2022-10-16T05:48:40;2.08;;;1.88;;
31680;SDS011;18281;51.364;9.566;2022-10-16T05:51:07;1.40;;;1.30;;
31680;SDS011;18281;51.364;9.566;2022-10-16T05:53:34;1.60;;;1.50;;
31680;SDS011;18281;51.364;9.566;2022-10-16T05:56:01;9.48;;;4.13;;
31680;SDS011;18281;51.364;9.566;2022-10-16T05:58:29;5.40;;;2.00;;
31680;SDS011;18281;51.364;9.566;2022-10-16T06:00:56;7.40;;;1.90;;
31680;SDS011;18281;51.364;9.566;2022-10-16T06:03:23;2.85;;;1.60;;
31680;SDS011;18281;51.364;9.566;2022-10-16T06:05:48;2.63;;;1.80;;
31680;SDS011;18281;51.364;9.566;2022-10-16T06:08:14;2.67;;;2.05;;
31680;SDS011;18281;51.364;9.566;2022-10-16T06:10:39;5.88;;;3.55;;
31680;SDS011;18281;51.364;9.566;2022-10-16T06:13:04;3.58;;;3.03;;
31680;SDS011;18281;51.364;9.566;2022-10-16T06:15:30;2.78;;;2.50;;
31680;SDS011;18281;51.364;9.566;2022-10-16T06:17:55;5.20;;;3.00;;
31680;SDS011;18281;51.364;9.566;2022-10-16T06:20:20;3.03;;;2.70;;
31680;SDS011;18281;51.364;9.566;2022-10-16T06:22:46;2.70;;;2.50;;
31680;SDS011;18281;51.364;9.566;2022-10-16T06:25:11;3.38;;;2.90;;
31680;SDS011;18281;51.364;9.566;2022-10-16T06:27:39;4.55;;;3.08;;
31680;SDS011;18281;51.364;9.566;2022-10-16T06:30:05;4.88;;;2.53;;
31680;SDS011;18281;51.364;9.566;2022-10-16T06:32:31;4.68;;;2.92;;
31680;SDS011;18281;51.364;9.566;2022-10-16T06:34:56;4.03;;;2.80;;
31680;SDS011;18281;51.364;9.566;2022-10-16T06:37:21;3.00;;;2.78;;
31680;SDS011;18281;51.364;9.566;2022-10-16T06:39:47;3.70;;;2.83;;
31680;SDS011;18281;51.364;9.566;2022-10-16T06:42:12;3.42;;;2.40;;
31680;SDS011;18281;51.364;9.566;2022-10-16T06:44:37;3.30;;;1.98;;
31680;SDS011;18281;51.364;9.566;2022-10-16T06:47:03;3.17;;;2.28;;
31680;SDS011;18281;51.364;9.566;2022-10-16T06:49:28;3.58;;;2.95;;
31680;SDS011;18281;51.364;9.566;2022-10-16T06:51:54;2.65;;;1.85;;
31680;SDS011;18281;51.364;9.566;2022-10-16T06:54:19;2.38;;;2.15;;
31680;SDS011;18281;51.364;9.566;2022-10-16T06:56:44;3.63;;;2.17;;
31680;SDS011;18281;51.364;9.566;2022-10-16T06:59:10;2.28;;;2.10;;
31680;SDS011;18281;51.364;9.566;2022-10-16T07:01:35;1.92;;;1.60;;
31680;SDS011;18281;51.364;9.566;2022-10-16T07:04:01;2.60;;;1.50;;
31680;SDS011;18281;51.364;9.566;2022-10-16T07:06:27;6.57;;;1.80;;
31680;SDS011;18281;51.364;9.566;2022-10-16T07:08:56;3.50;;;1.95;;
31680;SDS011;18281;51.364;9.566;2022-10-16T07:11:22;3.88;;;2.05;;
31680;SDS011;18281;51.364;9.566;2022-10-16T07:13:49;2.70;;;1.52;;
31680;SDS011;18281;51.364;9.566;2022-10-16T07:16:17;3.08;;;1.50;;
31680;SDS011;18281;51.364;9.566;2022-10-16T07:18:44;4.73;;;1.80;;
31680;SDS011;18281;51.364;9.566;2022-10-16T07:21:12;4.90;;;1.83;;
31680;SDS011;18281;51.364;9.566;2022-10-16T07:23:39;3.40;;;2.08;;
31680;SDS011;18281;51.364;9.566;2022-10-16T07:26:05;3.63;;;1.90;;
31680;SDS011;18281;51.364;9.566;2022-10-16T07:28:32;3.55;;;1.50;;
31680;SDS011;18281;51.364;9.566;2022-10-16T07:31:09;1.50;;;1.17;;
31680;SDS011;18281;51.364;9.566;2022-10-16T07:33:36;4.25;;;1.30;;
31680;SDS011;18281;51.364;9.566;2022-10-16T07:36:03;1.52;;;1.27;;
31680;SDS011;18281;51.364;9.566;2022-10-16T07:38:29;5.60;;;1.80;;
31680;SDS011;18281;51.364;9.566;2022-10-16T07:40:55;3.17;;;1.52;;
31680;SDS011;18281;51.364;9.566;2022-10-16T07:43:22;2.13;;;1.60;;
31680;SDS011;18281;51.364;9.566;2022-10-16T07:45:48;1.25;;;1.00;;
31680;SDS011;18281;51.364;9.566;2022-10-16T07:48:14;1.60;;;1.17;;
31680;SDS011;18281;51.364;9.566;2022-10-16T07:50:40;1.10;;;1.10;;
31680;SDS011;18281;51.364;9.566;2022-10-16T07:53:06;3.92;;;2.95;;
31680;SDS011;18281;51.364;9.566;2022-10-16T07:55:32;2.88;;;1.85;;
31680;SDS011;18281;51.364;9.566;2022-10-16T07:57:57;2.97;;;1.23;;
31680;SDS011;18281;51.364;9.566;2022-10-16T08:00:22;1.67;;;1.02;;
31680;SDS011;18281;51.364;9.566;2022-10-16T08:02:48;1.25;;;1.15;;
31680;SDS011;18281;51.364;9.566;2022-10-16T08:05:13;1.80;;;1.30;;
31680;SDS011;18281;51.364;9.566;2022-10-16T08:07:38;2.60;;;1.05;;
31680;SDS011;18281;51.364;9.566;2022-10-16T08:10:04;3.50;;;1.60;;
31680;SDS011;18281;51.364;9.566;2022-10-16T08:12:30;2.10;;;1.60;;
31680;SDS011;18281;51.364;9.566;2022-10-16T08:14:55;1.30;;;1.20;;
31680;SDS011;18281;51.364;9.566;2022-10-16T08:17:20;1.08;;;1.00;;
31680;SDS011;18281;51.364;9.566;2022-10-16T08:19:46;1.08;;;1.05;;
31680;SDS011;18281;51.364;9.566;2022-10-16T08:22:12;3.47;;;1.17;;
31680;SDS011;18281;51.364;9.566;2022-10-16T08:24:38;1.50;;;1.05;;
31680;SDS011;18281;51.364;9.566;2022-10-16T08:27:04;1.58;;;1.10;;
31680;SDS011;18281;51.364;9.566;2022-10-16T08:29:29;1.17;;;1.17;;
31680;SDS011;18281;51.364;9.566;2022-10-16T08:31:54;2.22;;;1.10;;
31680;SDS011;18281;51.364;9.566;2022-10-16T08:34:20;1.30;;;0.90;;
31680;SDS011;18281;51.364;9.566;2022-10-16T08:36:45;1.50;;;0.95;;
31680;SDS011;18281;51.364;9.566;2022-10-16T08:39:10;1.60;;;1.08;;
31680;SDS011;18281;51.364;9.566;2022-10-16T08:50:29;2.05;;;0.85;;
31680;SDS011;18281;51.364;9.566;2022-10-16T08:52:56;3.42;;;0.93;;
31680;SDS011;18281;51.364;9.566;2022-10-16T08:57:57;0.80;;;0.80;;
31680;SDS011;18281;51.364;9.566;2022-10-16T09:00:23;1.02;;;1.02;;
31680;SDS011;18281;51.364;9.566;2022-10-16T09:05:24;2.88;;;1.30;;
31680;SDS011;18281;51.364;9.566;2022-10-16T09:15:32;0.70;;;0.70;;
31680;SDS011;18281;51.364;9.566;2022-10-16T09:23:30;0.70;;;0.70;;
31680;SDS011;18281;51.364;9.566;2022-10-16T09:25:59;1.40;;;0.90;;
31680;SDS011;18281;51.364;9.566;2022-10-16T09:28:24;1.67;;;1.10;;
31680;SDS011;18281;51.364;9.566;2022-10-16T09:30:50;2.28;;;1.30;;
31680;SDS011;18281;51.364;9.566;2022-10-16T09:33:17;1.40;;;1.30;;
31680;SDS011;18281;51.364;9.566;2022-10-16T09:35:49;2.00;;;1.20;;
31680;SDS011;18281;51.364;9.566;2022-10-16T09:38:24;2.35;;;1.83;;
31680;SDS011;18281;51.364;9.566;2022-10-16T09:40:58;3.72;;;1.13;;
31680;SDS011;18281;51.364;9.566;2022-10-16T09:43:36;1.27;;;0.77;;
31680;SDS011;18281;51.364;9.566;2022-10-16T09:46:06;4.47;;;0.85;;
31680;SDS011;18281;51.364;9.566;2022-10-16T09:48:43;4.57;;;1.35;;
31680;SDS011;18281;51.364;9.566;2022-10-16T09:51:18;2.50;;;1.23;;
31680;SDS011;18281;51.364;9.566;2022-10-16T09:53:48;2.08;;;0.98;;
31680;SDS011;18281;51.364;9.566;2022-10-16T09:56:24;3.08;;;1.30;;
31680;SDS011;18281;51.364;9.566;2022-10-16T09:58:53;1.05;;;0.90;;
31680;SDS011;18281;51.364;9.566;2022-10-16T10:01:29;0.60;;;0.60;;
31680;SDS011;18281;51.364;9.566;2022-10-16T10:04:00;1.10;;;1.00;;
31680;SDS011;18281;51.364;9.566;2022-10-16T10:06:30;3.63;;;1.10;;
31680;SDS011;18281;51.364;9.566;2022-10-16T10:09:17;4.18;;;0.90;;
31680;SDS011;18281;51.364;9.566;2022-10-16T10:14:21;0.82;;;0.73;;
31680;SDS011;18281;51.364;9.566;2022-10-16T10:17:20;3.00;;;0.70;;
31680;SDS011;18281;51.364;9.566;2022-10-16T10:19:54;1.20;;;0.85;;
31680;SDS011;18281;51.364;9.566;2022-10-16T10:22:29;0.93;;;0.90;;
31680;SDS011;18281;51.364;9.566;2022-10-16T10:39:12;4.13;;;0.68;;
31680;SDS011;18281;51.364;9.566;2022-10-16T10:50:30;0.50;;;0.50;;
31680;SDS011;18281;51.364;9.566;2022-10-16T10:56:14;1.40;;;0.50;;
31680;SDS011;18281;51.364;9.566;2022-10-16T11:01:44;2.05;;;0.43;;
31680;SDS011;18281;51.364;9.566;2022-10-16T11:04:34;0.30;;;0.30;;
31680;SDS011;18281;51.364;9.566;2022-10-16T11:07:15;1.08;;;0.38;;
31680;SDS011;18281;51.364;9.566;2022-10-16T11:09:49;1.05;;;0.52;;
31680;SDS011;18281;51.364;9.566;2022-10-16T11:12:20;1.48;;;0.32;;
31680;SDS011;18281;51.364;9.566;2022-10-16T11:17:50;0.70;;;0.38;;
31680;SDS011;18281;51.364;9.566;2022-10-16T11:20:22;1.08;;;0.17;;
31680;SDS011;18281;51.364;9.566;2022-10-16T11:23:00;0.75;;;0.30;;
31680;SDS011;18281;51.364;9.566;2022-10-16T11:25:32;0.35;;;0.10;;
31680;SDS011;18281;51.364;9.566;2022-10-16T11:28:01;0.40;;;0.40;;
31680;SDS011;18281;51.364;9.566;2022-10-16T11:30:28;1.30;;;0.50;;
31680;SDS011;18281;51.364;9.566;2022-10-16T11:35:37;1.85;;;0.77;;
31680;SDS011;18281;51.364;9.566;2022-10-16T11:38:04;1.70;;;0.22;;
31680;SDS011;18281;51.364;9.566;2022-10-16T11:40:38;2.95;;;0.30;;
31680;SDS011;18281;51.364;9.566;2022-10-16T11:45:51;0.57;;;0.30;;
31680;SDS011;18281;51.364;9.566;2022-10-16T11:48:33;0.30;;;0.30;;
31680;SDS011;18281;51.364;9.566;2022-10-16T11:51:06;0.52;;;0.20;;
31680;SDS011;18281;51.364;9.566;2022-10-16T11:53:42;0.20;;;0.20;;
31680;SDS011;18281;51.364;9.566;2022-10-16T11:56:27;2.25;;;0.10;;
31680;SDS011;18281;51.364;9.566;2022-10-16T11:58:56;1.45;;;0.30;;
31680;SDS011;18281;51.364;9.566;2022-10-16T12:01:33;0.38;;;0.22;;
31680;SDS011;18281;51.364;9.566;2022-10-16T12:04:21;3.33;;;0.30;;
31680;SDS011;18281;51.364;9.566;2022-10-16T12:10:09;0.75;;;0.25;;
31680;SDS011;18281;51.364;9.566;2022-10-16T12:15:29;0.68;;;0.20;;
31680;SDS011;18281;51.364;9.566;2022-10-16T12:17:56;2.17;;;0.40;;
31680;SDS011;18281;51.364;9.566;2022-10-16T12:30:26;2.75;;;0.57;;
31680;SDS011;18281;51.364;9.566;2022-10-16T12:32:56;1.33;;;0.40;;
31680;SDS011;18281;51.364;9.566;2022-10-16T12:35:25;1.50;;;0.55;;
31680;SDS011;18281;51.364;9.566;2022-10-16T12:37:52;1.45;;;0.38;;
31680;SDS011;18281;51.364;9.566;2022-10-16T12:42:57;1.58;;;0.40;;
31680;SDS011;18281;51.364;9.566;2022-10-16T12:45:30;2.05;;;0.28;;
31680;SDS011;18281;51.364;9.566;2022-10-16T12:47:57;0.85;;;0.30;;
31680;SDS011;18281;51.364;9.566;2022-10-16T12:50:35;0.20;;;0.20;;
31680;SDS011;18281;51.364;9.566;2022-10-16T12:53:04;0.73;;;0.20;;
31680;SDS011;18281;51.364;9.566;2022-10-16T12:55:46;0.22;;;0.20;;
31680;SDS011;18281;51.364;9.566;2022-10-16T13:01:49;1.55;;;0.40;;
31680;SDS011;18281;51.364;9.566;2022-10-16T13:07:20;4.43;;;0.28;;
31680;SDS011;18281;51.364;9.566;2022-10-16T13:09:55;2.08;;;0.38;;
31680;SDS011;18281;51.364;9.566;2022-10-16T13:15:19;0.17;;;0.17;;
31680;SDS011;18281;51.364;9.566;2022-10-16T13:17:55;1.10;;;0.22;;
31680;SDS011;18281;51.364;9.566;2022-10-16T13:20:33;2.05;;;0.30;;
31680;SDS011;18281;51.364;9.566;2022-10-16T13:26:17;5.97;;;1.65;;
31680;SDS011;18281;51.364;9.566;2022-10-16T13:28:42;1.80;;;0.20;;
31680;SDS011;18281;51.364;9.566;2022-10-16T13:31:18;2.33;;;0.30;;
31680;SDS011;18281;51.364;9.566;2022-10-16T13:33:56;1.75;;;0.28;;
31680;SDS011;18281;51.364;9.566;2022-10-16T13:36:25;2.60;;;0.40;;
31680;SDS011;18281;51.364;9.566;2022-10-16T13:39:27;1.00;;;0.20;;
31680;SDS011;18281;51.364;9.566;2022-10-16T13:44:26;0.30;;;0.20;;
31680;SDS011;18281;51.364;9.566;2022-10-16T13:47:01;1.20;;;0.20;;
31680;SDS011;18281;51.364;9.566;2022-10-16T13:49:27;0.20;;;0.20;;
31680;SDS011;18281;51.364;9.566;2022-10-16T13:51:57;3.95;;;0.38;;
31680;SDS011;18281;51.364;9.566;2022-10-16T13:54:24;2.30;;;0.35;;
31680;SDS011;18281;51.364;9.566;2022-10-16T13:56:51;1.05;;;0.30;;
31680;SDS011;18281;51.364;9.566;2022-10-16T13:59:27;0.90;;;0.30;;
31680;SDS011;18281;51.364;9.566;2022-10-16T14:01:58;0.32;;;0.30;;
31680;SDS011;18281;51.364;9.566;2022-10-16T14:04:31;0.55;;;0.30;;
31680;SDS011;18281;51.364;9.566;2022-10-16T14:06:58;0.90;;;0.25;;
31680;SDS011;18281;51.364;9.566;2022-10-16T14:09:27;0.85;;;0.47;;
31680;SDS011;18281;51.364;9.566;2022-10-16T14:11:55;0.45;;;0.30;;
31680;SDS011;18281;51.364;9.566;2022-10-16T14:14:24;0.30;;;0.30;;
31680;SDS011;18281;51.364;9.566;2022-10-16T14:16:52;1.02;;;0.30;;
31680;SDS011;18281;51.364;9.566;2022-10-16T14:19:24;3.95;;;0.52;;
31680;SDS011;18281;51.364;9.566;2022-10-16T14:21:51;1.52;;;0.20;;
31680;SDS011;18281;51.364;9.566;2022-10-16T14:24:32;2.00;;;0.30;;
31680;SDS011;18281;51.364;9.566;2022-10-16T14:26:59;3.85;;;0.52;;
31680;SDS011;18281;51.364;9.566;2022-10-16T14:29:27;2.33;;;0.38;;
31680;SDS011;18281;51.364;9.566;2022-10-16T14:31:59;1.60;;;0.40;;
31680;SDS011;18281;51.364;9.566;2022-10-16T14:34:33;0.20;;;0.20;;
31680;SDS011;18281;51.364;9.566;2022-10-16T14:37:14;0.25;;;0.25;;
31680;SDS011;18281;51.364;9.566;2022-10-16T14:39:52;1.52;;;0.35;;
31680;SDS011;18281;51.364;9.566;2022-10-16T14:42:20;0.10;;;0.10;;
31680;SDS011;18281;51.364;9.566;2022-10-16T14:44:49;1.25;;;0.30;;
31680;SDS011;18281;51.364;9.566;2022-10-16T14:47:20;2.65;;;0.30;;
31680;SDS011;18281;51.364;9.566;2022-10-16T14:49:50;0.65;;;0.28;;
31680;SDS011;18281;51.364;9.566;2022-10-16T14:52:16;0.52;;;0.30;;
31680;SDS011;18281;51.364;9.566;2022-10-16T14:54:42;0.40;;;0.40;;
31680;SDS011;18281;51.364;9.566;2022-10-16T14:57:18;1.27;;;0.30;;
31680;SDS011;18281;51.364;9.566;2022-10-16T14:59:47;0.35;;;0.25;;
31680;SDS011;18281;51.364;9.566;2022-10-16T15:04:54;3.05;;;1.02;;
31680;SDS011;18281;51.364;9.566;2022-10-16T15:07:20;1.90;;;1.27;;
31680;SDS011;18281;51.364;9.566;2022-10-16T15:09:46;4.40;;;2.75;;
31680;SDS011;18281;51.364;9.566;2022-10-16T15:12:11;5.25;;;2.53;;
31680;SDS011;18281;51.364;9.566;2022-10-16T15:14:36;2.75;;;1.30;;
31680;SDS011;18281;51.364;9.566;2022-10-16T15:17:02;1.98;;;1.33;;
31680;SDS011;18281;51.364;9.566;2022-10-16T15:19:27;2.22;;;0.77;;
31680;SDS011;18281;51.364;9.566;2022-10-16T15:21:53;1.50;;;1.10;;
31680;SDS011;18281;51.364;9.566;2022-10-16T15:24:18;1.15;;;1.05;;
31680;SDS011;18281;51.364;9.566;2022-10-16T15:26:43;8.25;;;3.45;;
31680;SDS011;18281;51.364;9.566;2022-10-16T15:29:11;3.58;;;2.78;;
31680;SDS011;18281;51.364;9.566;2022-10-16T15:31:37;4.07;;;1.80;;
31680;SDS011;18281;51.364;9.566;2022-10-16T15:34:02;2.35;;;2.13;;
31680;SDS011;18281;51.364;9.566;2022-10-16T15:36:33;3.10;;;2.05;;
31680;SDS011;18281;51.364;9.566;2022-10-16T15:39:02;5.03;;;1.40;;
31680;SDS011;18281;51.364;9.566;2022-10-16T15:41:28;7.40;;;0.80;;
31680;SDS011;18281;51.364;9.566;2022-10-16T15:43:53;1.98;;;0.77;;
31680;SDS011;18281;51.364;9.566;2022-10-16T15:46:19;3.80;;;0.52;;
31680;SDS011;18281;51.364;9.566;2022-10-16T15:48:47;2.30;;;0.90;;
31680;SDS011;18281;51.364;9.566;2022-10-16T15:51:13;1.70;;;0.35;;
31680;SDS011;18281;51.364;9.566;2022-10-16T15:53:38;1.25;;;0.50;;
31680;SDS011;18281;51.364;9.566;2022-10-16T15:56:04;2.60;;;1.02;;
31680;SDS011;18281;51.364;9.566;2022-10-16T15:58:30;2.47;;;0.93;;
31680;SDS011;18281;51.364;9.566;2022-10-16T16:00:56;1.63;;;0.40;;
31680;SDS011;18281;51.364;9.566;2022-10-16T16:03:23;2.35;;;0.60;;
31680;SDS011;18281;51.364;9.566;2022-10-16T16:05:48;35.67;;;15.13;;
31680;SDS011;18281;51.364;9.566;2022-10-16T16:08:13;22.25;;;10.13;;
31680;SDS011;18281;51.364;9.566;2022-10-16T16:10:39;5.88;;;2.17;;
31680;SDS011;18281;51.364;9.566;2022-10-16T16:13:04;6.38;;;1.90;;
31680;SDS011;18281;51.364;9.566;2022-10-16T16:15:30;4.30;;;1.20;;
31680;SDS011;18281;51.364;9.566;2022-10-16T16:17:55;6.47;;;2.03;;
31680;SDS011;18281;51.364;9.566;2022-10-16T16:20:20;5.30;;;1.30;;
31680;SDS011;18281;51.364;9.566;2022-10-16T16:22:46;9.00;;;1.60;;
31680;SDS011;18281;51.364;9.566;2022-10-16T16:25:12;3.28;;;1.98;;
31680;SDS011;18281;51.364;9.566;2022-10-16T16:27:37;3.35;;;1.50;;
31680;SDS011;18281;51.364;9.566;2022-10-16T16:30:04;5.45;;;1.58;;
31680;SDS011;18281;51.364;9.566;2022-10-16T16:32:32;9.95;;;1.33;;
31680;SDS011;18281;51.364;9.566;2022-10-16T16:34:58;4.53;;;1.33;;
31680;SDS011;18281;51.364;9.566;2022-10-16T16:37:23;1.52;;;0.88;;
31680;SDS011;18281;51.364;9.566;2022-10-16T16:39:48;1.55;;;1.00;;
31680;SDS011;18281;51.364;9.566;2022-10-16T16:42:14;1.83;;;0.95;;
31680;SDS011;18281;51.364;9.566;2022-10-16T16:44:39;2.28;;;1.10;;
31680;SDS011;18281;51.364;9.566;2022-10-16T16:47:05;2.25;;;0.90;;
31680;SDS011;18281;51.364;9.566;2022-10-16T16:49:31;1.13;;;1.00;;
31680;SDS011;18281;51.364;9.566;2022-10-16T16:51:56;5.28;;;1.30;;
31680;SDS011;18281;51.364;9.566;2022-10-16T16:54:22;2.97;;;1.38;;
31680;SDS011;18281;51.364;9.566;2022-10-16T16:56:47;6.68;;;0.90;;